createdAt,value
2018-01-18T00:01:35.092Z,9.45
2018-01-18T00:04:04.221Z,9.44
2018-01-18T00:06:32.537Z,9.42
2018-01-18T00:09:00.914Z,9.42
2018-01-18T00:11:29.170Z,9.40
2018-01-18T00:13:57.234Z,9.41
2018-01-18T00:16:25.198Z,9.41
2018-01-18T00:18:53.389Z,9.41
2018-01-18T00:21:21.432Z,9.41
2018-01-18T00:23:49.529Z,9.42
2018-01-18T00:26:17.484Z,9.43
2018-01-18T00:28:47.702Z,9.42
2018-01-18T00:31:16.010Z,9.40
2018-01-18T00:33:43.788Z,9.39
2018-01-18T00:36:15.896Z,9.38
2018-01-18T00:38:44.086Z,9.36
2018-01-18T00:41:12.292Z,9.34
2018-01-18T00:43:40.982Z,9.33
2018-01-18T00:46:08.809Z,9.31
2018-01-18T00:48:36.976Z,9.33
2018-01-18T00:51:08.941Z,9.32
2018-01-18T00:53:37.108Z,9.31
2018-01-18T00:56:05.076Z,9.29
2018-01-18T00:58:33.401Z,9.30
2018-01-18T01:01:03.624Z,9.32
2018-01-18T01:03:31.517Z,9.34
2018-01-18T01:05:59.764Z,9.34
2018-01-18T01:08:27.772Z,9.35
2018-01-18T01:10:58.050Z,9.37
2018-01-18T01:13:26.005Z,9.38
2018-01-18T01:15:54.044Z,9.37
2018-01-18T01:18:22.010Z,9.38
2018-01-18T01:20:50.203Z,9.37
2018-01-18T01:23:18.412Z,9.37
2018-01-18T01:25:46.230Z,9.37
2018-01-18T01:28:14.851Z,9.36
2018-01-18T01:30:45.160Z,9.35
2018-01-18T01:33:13.156Z,9.35
2018-01-18T01:35:45.248Z,9.36
2018-01-18T01:38:13.407Z,9.36
2018-01-18T01:40:43.674Z,9.36
2018-01-18T01:43:13.722Z,9.35
2018-01-18T01:45:41.553Z,9.33
2018-01-18T01:48:09.757Z,9.29
2018-01-18T01:50:39.779Z,9.27
2018-01-18T01:53:08.163Z,9.27
2018-01-18T01:55:38.389Z,9.27
2018-01-18T01:58:06.280Z,9.27
2018-01-18T02:00:34.372Z,9.27
2018-01-18T02:03:02.595Z,9.27
2018-01-18T02:05:34.960Z,9.25
2018-01-18T02:08:02.919Z,9.24
2018-01-18T02:10:33.265Z,9.19
2018-01-18T02:13:01.535Z,9.20
2018-01-18T02:15:29.491Z,9.16
2018-01-18T02:17:57.728Z,9.18
2018-01-18T02:20:25.696Z,9.20
2018-01-18T02:22:53.871Z,9.16
2018-01-18T02:25:21.802Z,9.16
2018-01-18T02:27:54.058Z,9.14
2018-01-18T02:30:21.883Z,9.09
2018-01-18T02:32:50.075Z,9.09
2018-01-18T02:35:18.012Z,9.10
2018-01-18T02:37:48.179Z,9.06
2018-01-18T02:40:16.194Z,9.07
2018-01-18T02:42:46.361Z,9.06
2018-01-18T02:45:16.387Z,9.05
2018-01-18T02:47:44.760Z,9.07
2018-01-18T02:50:12.739Z,9.08
2018-01-18T02:52:40.604Z,9.06
2018-01-18T02:55:08.537Z,9.07
2018-01-18T02:57:36.431Z,9.06
2018-01-18T03:00:04.808Z,9.06
2018-01-18T03:02:32.635Z,9.07
2018-01-18T03:05:00.858Z,9.07
2018-01-18T03:07:28.816Z,9.03
2018-01-18T03:09:57.054Z,9.01
2018-01-18T03:12:25.054Z,9.01
2018-01-18T03:14:53.070Z,9.02
2018-01-18T03:17:25.450Z,9.01
2018-01-18T03:19:53.540Z,9.03
2018-01-18T03:22:21.748Z,9.01
2018-01-18T03:24:49.816Z,8.99
2018-01-18T03:27:17.637Z,8.98
2018-01-18T03:29:47.302Z,8.99
2018-01-18T03:32:19.443Z,8.98
2018-01-18T03:34:47.384Z,8.94
2018-01-18T03:37:15.447Z,8.96
2018-01-18T03:39:43.650Z,8.95
2018-01-18T03:42:11.605Z,8.96
2018-01-18T03:44:39.796Z,8.96
2018-01-18T03:47:10.012Z,8.95
2018-01-18T03:49:37.977Z,8.87
2018-01-18T03:52:06.166Z,8.87
2018-01-18T03:54:36.657Z,8.86
2018-01-18T03:57:04.585Z,8.85
2018-01-18T03:59:36.676Z,8.85
2018-01-18T04:02:05.011Z,8.84
2018-01-18T04:04:32.944Z,8.83
2018-01-18T04:07:00.910Z,8.81
2018-01-18T04:09:30.823Z,8.78
2018-01-18T04:11:59.016Z,8.74
2018-01-18T04:14:26.957Z,8.73
2018-01-18T04:16:59.285Z,8.73
2018-01-18T04:19:27.112Z,8.72
2018-01-18T04:21:55.116Z,8.69
2018-01-18T04:24:27.241Z,8.70
2018-01-18T04:26:55.432Z,8.69
2018-01-18T04:29:23.131Z,8.67
2018-01-18T04:31:53.243Z,8.68
2018-01-18T04:34:21.916Z,8.64
2018-01-18T04:36:50.143Z,8.66
2018-01-18T04:39:18.108Z,8.68
2018-01-18T04:41:46.602Z,8.68
2018-01-18T04:44:14.812Z,8.69
2018-01-18T04:46:42.882Z,8.65
2018-01-18T04:49:11.123Z,8.70
2018-01-18T04:51:39.341Z,8.68
2018-01-18T04:54:07.103Z,8.65
2018-01-18T04:56:35.066Z,8.64
2018-01-18T04:59:02.832Z,8.62
2018-01-18T05:01:31.855Z,8.64
2018-01-18T05:04:02.147Z,8.61
2018-01-18T05:06:30.613Z,8.65
2018-01-18T05:09:00.646Z,8.62
2018-01-18T05:11:28.559Z,8.64
2018-01-18T05:13:56.885Z,8.62
2018-01-18T05:16:27.460Z,8.61
2018-01-18T05:18:55.682Z,8.62
2018-01-18T05:21:25.716Z,8.60
2018-01-18T05:23:53.350Z,8.61
2018-01-18T05:26:21.312Z,8.61
2018-01-18T05:28:49.467Z,8.66
2018-01-18T05:31:17.468Z,8.75
2018-01-18T05:33:47.472Z,8.82
2018-01-18T05:36:19.541Z,8.90
2018-01-18T05:38:47.469Z,8.94
2018-01-18T05:41:15.570Z,8.96
2018-01-18T05:43:45.427Z,8.98
2018-01-18T05:46:14.274Z,9.01
2018-01-18T05:48:42.785Z,9.01
2018-01-18T05:51:10.550Z,9.12
2018-01-18T05:53:38.331Z,9.23
2018-01-18T05:56:06.079Z,9.31
2018-01-18T05:58:34.141Z,9.31
2018-01-18T06:01:02.092Z,9.34
2018-01-18T06:03:29.784Z,9.32
2018-01-18T06:05:57.999Z,9.29
2018-01-18T06:08:25.821Z,9.30
2018-01-18T06:10:53.779Z,9.29
2018-01-18T06:13:21.648Z,9.33
2018-01-18T06:15:49.461Z,9.35
2018-01-18T06:18:19.702Z,9.38
2018-01-18T06:20:47.893Z,9.40
2018-01-18T06:23:15.837Z,9.43
2018-01-18T06:25:43.843Z,9.44
2018-01-18T06:28:14.369Z,9.41
2018-01-18T06:30:42.157Z,9.38
2018-01-18T06:33:10.216Z,9.34
2018-01-18T06:35:37.981Z,9.38
2018-01-18T06:38:06.660Z,9.39
2018-01-18T06:40:34.429Z,9.37
2018-01-18T06:43:02.355Z,9.35
2018-01-18T06:45:30.321Z,9.42
2018-01-18T06:47:58.365Z,9.42
2018-01-18T06:50:26.455Z,9.41
2018-01-18T06:52:54.694Z,9.41
2018-01-18T06:55:24.693Z,9.39
2018-01-18T06:57:52.760Z,9.41
2018-01-18T07:00:20.714Z,9.40
2018-01-18T07:02:51.663Z,9.55
2018-01-18T07:05:19.749Z,9.51
2018-01-18T07:07:49.971Z,9.48
2018-01-18T07:10:17.769Z,9.43
2018-01-18T07:12:46.166Z,9.42
2018-01-18T07:15:15.111Z,9.48
2018-01-18T07:17:43.382Z,9.54
2018-01-18T07:20:11.612Z,9.54
2018-01-18T07:22:39.915Z,9.50
2018-01-18T07:25:08.304Z,9.67
2018-01-18T07:27:39.012Z,9.68
2018-01-18T07:30:10.892Z,9.63
2018-01-18T07:32:38.839Z,9.60
2018-01-18T07:35:06.732Z,9.60
2018-01-18T07:37:34.532Z,9.59
2018-01-18T07:40:02.591Z,9.58
2018-01-18T07:42:32.878Z,9.61
2018-01-18T07:45:01.156Z,9.63
2018-01-18T07:47:28.927Z,9.70
2018-01-18T07:49:57.312Z,9.79
2018-01-18T07:52:27.234Z,9.83
2018-01-18T07:54:54.982Z,9.83
2018-01-18T07:57:25.225Z,9.77
2018-01-18T07:59:54.200Z,9.76
2018-01-18T08:02:22.152Z,9.77
2018-01-18T08:04:50.217Z,9.76
2018-01-18T08:07:18.585Z,9.77
2018-01-18T08:09:46.888Z,9.75
2018-01-18T08:12:17.008Z,9.77
2018-01-18T08:14:47.231Z,9.79
2018-01-18T08:17:17.759Z,9.83
2018-01-18T08:19:45.658Z,9.84
2018-01-18T08:22:13.599Z,9.87
2018-01-18T08:24:41.355Z,9.88
2018-01-18T08:27:09.470Z,9.90
2018-01-18T08:29:37.532Z,9.95
2018-01-18T08:32:10.484Z,9.99
2018-01-18T08:34:40.708Z,10.02
2018-01-18T08:37:10.629Z,10.21
2018-01-18T08:39:42.729Z,10.26
2018-01-18T08:42:10.949Z,10.46
2018-01-18T08:44:39.012Z,10.52
2018-01-18T08:47:11.189Z,10.56
2018-01-18T08:49:39.883Z,10.61
2018-01-18T08:52:07.648Z,10.65
2018-01-18T08:54:35.420Z,10.69
2018-01-18T08:57:03.187Z,10.72
2018-01-18T08:59:30.944Z,10.77
2018-01-18T09:01:58.725Z,10.82
2018-01-18T09:04:26.775Z,11.01
2018-01-18T09:06:54.947Z,11.14
2018-01-18T09:09:27.098Z,11.32
2018-01-18T09:11:55.158Z,11.49
2018-01-18T09:14:23.053Z,11.50
2018-01-18T09:16:50.825Z,11.59
2018-01-18T09:19:22.630Z,11.58
2018-01-18T09:21:50.818Z,11.56
2018-01-18T09:24:23.433Z,11.64
2018-01-18T09:26:51.277Z,11.66
2018-01-18T09:29:19.197Z,11.75
2018-01-18T09:31:47.432Z,11.82
2018-01-18T09:34:16.322Z,11.93
2018-01-18T09:36:44.299Z,12.03
2018-01-18T09:39:16.356Z,12.09
2018-01-18T09:41:44.624Z,12.12
2018-01-18T09:44:16.497Z,12.15
2018-01-18T09:46:48.553Z,12.18
2018-01-18T09:49:16.565Z,12.23
2018-01-18T09:51:44.689Z,12.17
2018-01-18T09:54:15.009Z,12.08
2018-01-18T09:56:43.235Z,11.97
2018-01-18T09:59:13.844Z,11.88
2018-01-18T10:01:41.597Z,11.88
2018-01-18T10:04:09.482Z,11.84
2018-01-18T10:06:37.599Z,11.72
2018-01-18T10:09:05.790Z,11.66
2018-01-18T10:11:34.013Z,11.69
2018-01-18T10:14:01.683Z,11.92
2018-01-18T10:16:29.411Z,11.95
2018-01-18T10:18:57.526Z,12.05
2018-01-18T10:21:25.627Z,12.02
2018-01-18T10:23:57.683Z,11.99
2018-01-18T10:26:25.923Z,11.94
2018-01-18T10:28:53.737Z,11.92
2018-01-18T10:31:25.818Z,12.02
2018-01-18T10:33:53.589Z,12.04
2018-01-18T10:36:25.647Z,12.03
2018-01-18T10:38:53.446Z,12.14
2018-01-18T10:41:21.268Z,12.25
2018-01-18T10:43:53.854Z,12.29
2018-01-18T10:46:22.597Z,12.33
2018-01-18T10:48:50.595Z,12.29
2018-01-18T10:51:18.974Z,12.21
2018-01-18T10:53:52.888Z,12.17
2018-01-18T10:56:20.841Z,12.30
2018-01-18T10:58:54.671Z,12.26
2018-01-18T11:01:22.930Z,12.21
2018-01-18T11:03:51.141Z,12.19
2018-01-18T11:06:19.155Z,12.30
2018-01-18T11:08:47.767Z,12.32
2018-01-18T11:11:15.527Z,12.28
2018-01-18T11:13:44.209Z,12.26
2018-01-18T11:16:12.341Z,12.38
2018-01-18T11:18:40.523Z,12.35
2018-01-18T11:21:08.427Z,12.30
2018-01-18T11:23:40.189Z,12.26
2018-01-18T11:26:10.409Z,12.35
2018-01-18T11:28:39.259Z,12.37
2018-01-18T11:31:10.627Z,12.37
2018-01-18T11:33:38.314Z,12.33
2018-01-18T11:36:06.375Z,12.30
2018-01-18T11:38:34.142Z,12.27
2018-01-18T11:41:04.047Z,12.31
2018-01-18T11:43:36.464Z,12.30
2018-01-18T11:46:04.189Z,12.40
2018-01-18T11:48:32.584Z,12.40
2018-01-18T11:51:05.048Z,12.38
2018-01-18T11:53:32.696Z,12.48
2018-01-18T11:56:04.767Z,12.46
2018-01-18T11:58:32.827Z,12.42
2018-01-18T12:01:01.596Z,12.38
2018-01-18T12:03:33.643Z,12.50
2018-01-18T12:06:01.655Z,12.47
2018-01-18T12:08:30.045Z,12.43
2018-01-18T12:10:57.825Z,12.41
2018-01-18T12:13:26.482Z,12.39
2018-01-18T12:15:54.252Z,12.53
2018-01-18T12:18:22.396Z,12.51
2018-01-18T12:20:50.700Z,12.47
2018-01-18T12:23:18.465Z,12.50
2018-01-18T12:25:46.722Z,12.47
2018-01-18T12:28:15.527Z,12.42
2018-01-18T12:30:44.272Z,12.39
2018-01-18T12:33:12.479Z,12.39
2018-01-18T12:35:40.361Z,12.39
2018-01-18T12:38:08.196Z,12.37
2018-01-18T12:40:38.336Z,12.36
2018-01-18T12:43:11.103Z,12.33
2018-01-18T12:45:38.780Z,12.32
2018-01-18T12:48:07.032Z,12.45
2018-01-18T12:50:36.154Z,12.50
2018-01-18T12:53:03.917Z,12.49
2018-01-18T12:55:32.129Z,12.43
2018-01-18T12:58:00.980Z,12.41
2018-01-18T13:00:29.346Z,12.56
2018-01-18T13:02:57.727Z,12.55
2018-01-18T13:05:26.290Z,12.54
2018-01-18T13:07:54.492Z,12.50
2018-01-18T13:10:24.104Z,12.61
2018-01-18T13:12:52.173Z,12.59
2018-01-18T13:15:19.938Z,12.56
2018-01-18T13:17:48.195Z,12.54
2018-01-18T13:20:18.218Z,12.60
2018-01-18T13:22:46.015Z,12.57
2018-01-18T13:25:14.716Z,12.52
2018-01-18T13:27:46.434Z,12.54
2018-01-18T13:30:16.336Z,12.50
2018-01-18T13:32:44.161Z,12.61
2018-01-18T13:35:13.106Z,12.58
2018-01-18T13:37:41.181Z,12.52
2018-01-18T13:40:09.932Z,12.49
2018-01-18T13:42:41.345Z,12.51
2018-01-18T13:45:09.371Z,12.49
2018-01-18T13:47:37.905Z,12.44
2018-01-18T13:50:10.123Z,12.48
2018-01-18T13:52:41.036Z,12.46
2018-01-18T13:55:11.277Z,12.57
2018-01-18T13:57:41.104Z,12.56
2018-01-18T14:00:09.779Z,12.52
2018-01-18T14:02:37.548Z,12.46
2018-01-18T14:05:08.465Z,12.41
2018-01-18T14:07:36.143Z,12.37
2018-01-18T14:10:04.834Z,12.35
2018-01-18T14:12:33.773Z,12.31
2018-01-18T14:15:03.465Z,12.29
2018-01-18T14:17:32.294Z,12.37
2018-01-18T14:20:00.208Z,12.36
2018-01-18T14:22:28.248Z,12.31
2018-01-18T14:24:56.635Z,12.26
2018-01-18T14:27:24.503Z,12.39
2018-01-18T14:29:52.779Z,12.36
2018-01-18T14:32:27.504Z,12.29
2018-01-18T14:34:55.409Z,12.22
2018-01-18T14:37:23.619Z,12.17
2018-01-18T14:39:52.123Z,12.11
2018-01-18T14:42:19.901Z,12.16
2018-01-18T14:44:47.554Z,12.12
2018-01-18T14:47:15.215Z,12.05
2018-01-18T14:49:42.871Z,11.99
2018-01-18T14:52:13.488Z,11.92
2018-01-18T14:54:41.208Z,11.86
2018-01-18T14:57:08.863Z,11.78
2018-01-18T14:59:40.914Z,11.72
2018-01-18T15:02:09.189Z,11.64
2018-01-18T15:04:36.956Z,11.58
2018-01-18T15:07:04.721Z,11.51
2018-01-18T15:09:32.405Z,11.45
2018-01-18T15:12:00.483Z,11.38
2018-01-18T15:14:29.112Z,11.33
2018-01-18T15:16:58.404Z,11.27
2018-01-18T15:19:26.554Z,11.23
2018-01-18T15:21:55.320Z,11.17
2018-01-18T15:24:24.482Z,11.12
2018-01-18T15:26:53.176Z,11.08
2018-01-18T15:29:22.138Z,11.04
2018-01-18T15:31:50.622Z,11.02
2018-01-18T15:34:18.897Z,10.99
2018-01-18T15:36:47.440Z,10.97
2018-01-18T15:39:15.707Z,10.93
2018-01-18T15:41:47.941Z,10.90
2018-01-18T15:44:20.394Z,10.89
2018-01-18T15:46:48.623Z,10.86
2018-01-18T15:49:16.755Z,10.85
2018-01-18T15:51:45.835Z,10.84
2018-01-18T15:54:13.957Z,10.79
2018-01-18T15:56:43.781Z,10.77
2018-01-18T15:59:15.897Z,10.77
2018-01-18T16:01:44.265Z,10.75
2018-01-18T16:04:14.551Z,10.72
2018-01-18T16:06:42.748Z,10.71
2018-01-18T16:09:10.691Z,10.67
2018-01-18T16:11:39.924Z,10.66
2018-01-18T16:14:08.009Z,10.66
2018-01-18T16:16:35.962Z,10.66
2018-01-18T16:19:03.900Z,10.67
2018-01-18T16:21:31.916Z,10.67
2018-01-18T16:23:59.932Z,10.67
2018-01-18T16:26:31.723Z,10.68
2018-01-18T16:29:00.109Z,10.68
2018-01-18T16:31:28.804Z,10.67
2018-01-18T16:33:57.049Z,10.67
2018-01-18T16:36:25.038Z,10.67
2018-01-18T16:38:53.323Z,10.65
2018-01-18T16:41:21.439Z,10.65
2018-01-18T16:43:49.671Z,10.64
2018-01-18T16:46:17.717Z,10.65
2018-01-18T16:48:48.680Z,10.65
2018-01-18T16:51:16.748Z,10.64
2018-01-18T16:53:49.119Z,10.65
2018-01-18T16:56:17.259Z,10.64
2018-01-18T16:58:45.523Z,10.63
2018-01-18T17:01:13.774Z,10.64
2018-01-18T17:03:42.012Z,10.64
2018-01-18T17:06:10.145Z,10.64
2018-01-18T17:08:38.837Z,10.63
2018-01-18T17:11:07.026Z,10.63
2018-01-18T17:13:37.068Z,10.62
2018-01-18T17:16:06.306Z,10.60
2018-01-18T17:18:35.103Z,10.60
2018-01-18T17:21:03.189Z,10.59
2018-01-18T17:23:31.810Z,10.58
2018-01-18T17:26:02.036Z,10.56
2018-01-18T17:28:30.284Z,10.55
2018-01-18T17:30:58.225Z,10.56
2018-01-18T17:33:26.749Z,10.54
2018-01-18T17:35:54.708Z,10.54
2018-01-18T17:38:23.081Z,10.54
2018-01-18T17:40:53.412Z,10.53
2018-01-18T17:43:21.898Z,10.52
2018-01-18T17:45:49.769Z,10.51
2018-01-18T17:48:22.077Z,10.50
2018-01-18T17:50:50.415Z,10.50
2018-01-18T17:53:18.490Z,10.50
2018-01-18T17:55:46.631Z,10.49
2018-01-18T17:58:15.421Z,10.49
2018-01-18T18:00:43.411Z,10.47
2018-01-18T18:03:14.150Z,10.48
2018-01-18T18:05:42.017Z,10.47
2018-01-18T18:08:10.291Z,10.46
2018-01-18T18:10:38.723Z,10.46
2018-01-18T18:13:07.053Z,10.47
2018-01-18T18:59:11.253Z,10.17
2018-01-18T19:01:40.101Z,10.18
2018-01-18T19:04:08.166Z,10.18
2018-01-18T19:06:36.133Z,10.19
2018-01-18T19:09:04.907Z,10.22
2018-01-18T19:11:33.137Z,10.23
2018-01-18T19:14:00.953Z,10.23
2018-01-18T19:16:32.978Z,10.23
2018-01-18T19:19:01.087Z,10.23
2018-01-18T19:21:30.802Z,10.25
2018-01-18T19:23:58.799Z,10.24
2018-01-18T19:26:27.147Z,10.22
2018-01-18T19:28:56.147Z,10.22
2018-01-18T19:31:24.336Z,10.23
2018-01-18T19:33:54.127Z,10.22
2018-01-18T19:36:22.343Z,10.22
2018-01-18T19:38:52.662Z,10.23
2018-01-18T19:41:21.847Z,10.23
2018-01-18T19:43:50.043Z,10.23
2018-01-18T19:46:17.854Z,10.23
2018-01-18T19:48:50.175Z,10.22
2018-01-18T19:51:18.409Z,10.23
2018-01-18T19:53:49.550Z,10.22
2018-01-18T19:56:18.267Z,10.22
2018-01-18T19:58:49.783Z,10.23
2018-01-18T20:01:17.894Z,10.23
2018-01-18T20:03:46.037Z,10.22
2018-01-18T20:06:16.503Z,10.22
2018-01-18T20:08:45.496Z,10.21
2018-01-18T20:11:16.384Z,10.22
2018-01-18T20:13:46.649Z,10.21
2018-01-18T20:16:14.988Z,10.22
2018-01-18T20:18:43.300Z,10.21
2018-01-18T20:21:14.142Z,10.22
2018-01-18T20:23:41.960Z,10.21
2018-01-18T20:26:11.513Z,10.21
2018-01-18T20:28:40.206Z,10.21
2018-01-18T20:31:11.023Z,10.20
2018-01-18T20:33:39.405Z,10.19
2018-01-18T20:36:07.689Z,10.17
2018-01-18T20:38:36.162Z,10.14
2018-01-18T20:41:04.754Z,10.12
2018-01-18T20:43:32.787Z,10.13
2018-01-18T20:46:01.104Z,10.12
2018-01-18T20:48:33.565Z,10.09
2018-01-18T20:51:01.501Z,10.09
2018-01-18T20:53:34.725Z,10.07
2018-01-18T20:56:02.701Z,10.07
2018-01-18T20:58:30.551Z,10.08
2018-01-18T21:00:58.516Z,10.08
2018-01-18T21:03:28.556Z,10.08
2018-01-18T21:05:56.921Z,10.08
2018-01-18T21:08:26.958Z,10.08
2018-01-18T21:10:55.704Z,10.09
2018-01-18T21:13:23.670Z,10.09
2018-01-18T21:15:55.971Z,10.10
2018-01-18T21:18:26.504Z,10.10
2018-01-18T21:20:55.640Z,10.11
2018-01-18T21:23:25.783Z,10.11
2018-01-18T21:25:54.084Z,10.12
2018-01-18T21:28:22.212Z,10.12
2018-01-18T21:30:50.555Z,10.12
2018-01-18T21:33:18.911Z,10.11
2018-01-18T21:35:47.058Z,10.13
2018-01-18T21:38:15.848Z,10.13
2018-01-18T21:40:43.752Z,10.13
2018-01-18T21:43:11.515Z,10.13
2018-01-18T21:45:40.085Z,10.13
2018-01-18T21:48:09.062Z,10.13
2018-01-18T21:50:37.100Z,10.12
2018-01-18T21:53:05.072Z,10.13
2018-01-18T21:55:36.066Z,10.13
2018-01-18T21:58:03.998Z,10.13
2018-01-18T22:00:32.191Z,10.14
2018-01-18T22:03:00.658Z,10.13
2018-01-18T22:05:28.920Z,10.13
2018-01-18T22:07:56.884Z,10.12
2018-01-18T22:10:25.074Z,10.11
2018-01-18T22:12:53.042Z,10.12
2018-01-18T22:15:21.830Z,10.11
2018-01-18T22:17:51.921Z,10.09
2018-01-18T22:20:20.247Z,10.09
2018-01-18T22:22:48.203Z,10.08
2018-01-18T22:25:20.398Z,10.08
2018-01-18T22:27:50.616Z,10.09
2018-01-18T22:30:18.448Z,10.07
2018-01-18T22:32:48.363Z,10.06
2018-01-18T22:35:16.362Z,10.06
2018-01-18T22:37:46.899Z,10.05
2018-01-18T22:40:17.108Z,10.05
2018-01-18T22:42:44.924Z,10.04
2018-01-18T22:45:13.244Z,10.03
2018-01-18T22:47:45.321Z,10.03
2018-01-18T22:50:13.246Z,10.02
2018-01-18T22:52:41.221Z,10.02
2018-01-18T22:55:09.521Z,10.02
2018-01-18T22:57:37.517Z,10.00
2018-01-18T23:00:07.615Z,10.01
2018-01-18T23:02:35.451Z,9.99
2018-01-18T23:05:03.416Z,9.99
2018-01-18T23:07:31.424Z,10.00
2018-01-18T23:10:00.405Z,9.99
2018-01-18T23:12:29.397Z,9.98
2018-01-18T23:14:57.779Z,9.99
2018-01-18T23:17:25.667Z,9.96
2018-01-18T23:19:53.915Z,9.96
2018-01-18T23:22:21.873Z,9.95
2018-01-18T23:24:49.913Z,9.95
2018-01-18T23:27:17.879Z,9.94
2018-01-18T23:29:45.794Z,9.94
2018-01-18T23:32:15.810Z,9.94
2018-01-18T23:34:44.186Z,9.94
2018-01-18T23:37:12.141Z,9.93
2018-01-18T23:39:40.080Z,9.92
2018-01-18T23:42:08.396Z,9.89
2018-01-18T23:44:37.223Z,9.88
2018-01-18T23:47:07.610Z,9.85
2018-01-18T23:49:35.443Z,9.85
2018-01-18T23:52:03.608Z,9.84
2018-01-18T23:54:31.575Z,9.85
2018-01-18T23:57:01.542Z,9.84
2018-01-18T23:59:33.581Z,9.84
